sensor_id;sensor_type;location;lat;lon;timestamp;pressure;altitude;pressure_sealevel;temperature;humidity
46392;BME280;32098;49.448;7.904;2024-03-22T00:01:48;98865.56;;;9.39;75.41
46392;BME280;32098;49.448;7.904;2024-03-22T00:04:16;98863.28;;;9.36;75.45
46392;BME280;32098;49.448;7.904;2024-03-22T00:06:43;98707.91;;;8.21;75.98
46392;BME280;32098;49.448;7.904;2024-03-22T00:09:10;98854.16;;;9.17;76.07
46392;BME280;32098;49.448;7.904;2024-03-22T00:11:37;98774.53;;;8.75;76.29
46392;BME280;32098;49.448;7.904;2024-03-22T00:14:03;98740.22;;;8.52;76.03
46392;BME280;32098;49.448;7.904;2024-03-22T00:16:29;98798.81;;;9.00;75.85
46392;BME280;32098;49.448;7.904;2024-03-22T00:18:55;98806.03;;;9.06;76.17
46392;BME280;32098;49.448;7.904;2024-03-22T00:21:25;98817.38;;;9.14;75.65
46392;BME280;32098;49.448;7.904;2024-03-22T00:23:51;98844.06;;;9.34;76.11
46392;BME280;32098;49.448;7.904;2024-03-22T00:26:17;98814.88;;;9.13;75.89
46392;BME280;32098;49.448;7.904;2024-03-22T00:28:43;98801.09;;;9.03;76.37
46392;BME280;32098;49.448;7.904;2024-03-22T00:31:09;98786.94;;;8.96;76.03
46392;BME280;32098;49.448;7.904;2024-03-22T00:33:35;98844.84;;;9.28;76.21
46392;BME280;32098;49.448;7.904;2024-03-22T00:36:01;98848.53;;;9.27;76.32
46392;BME280;32098;49.448;7.904;2024-03-22T00:38:27;98801.78;;;9.11;75.77
46392;BME280;32098;49.448;7.904;2024-03-22T00:40:52;98836.28;;;9.32;75.65
46392;BME280;32098;49.448;7.904;2024-03-22T00:43:19;98803.00;;;9.09;75.58
46392;BME280;32098;49.448;7.904;2024-03-22T00:45:45;98779.34;;;8.93;75.50
46392;BME280;32098;49.448;7.904;2024-03-22T00:48:11;98813.13;;;8.99;76.18
46392;BME280;32098;49.448;7.904;2024-03-22T00:50:37;98782.31;;;8.77;76.57
46392;BME280;32098;49.448;7.904;2024-03-22T00:53:03;98822.88;;;8.92;76.71
46392;BME280;32098;49.448;7.904;2024-03-22T00:55:31;98770.50;;;8.79;76.12
46392;BME280;32098;49.448;7.904;2024-03-22T00:57:57;98763.06;;;8.75;76.35
46392;BME280;32098;49.448;7.904;2024-03-22T01:00:24;98611.59;;;7.93;75.79
46392;BME280;32098;49.448;7.904;2024-03-22T01:02:50;98816.78;;;8.98;76.01
46392;BME280;32098;49.448;7.904;2024-03-22T01:05:17;98716.00;;;8.34;76.72
46392;BME280;32098;49.448;7.904;2024-03-22T01:07:43;98666.94;;;8.02;76.60
46392;BME280;32098;49.448;7.904;2024-03-22T01:10:10;98796.19;;;8.79;76.62
46392;BME280;32098;49.448;7.904;2024-03-22T01:12:37;98637.34;;;7.57;77.15
46392;BME280;32098;49.448;7.904;2024-03-22T01:15:03;98745.41;;;8.60;76.78
46392;BME280;32098;49.448;7.904;2024-03-22T01:17:30;98652.22;;;8.00;76.78
46392;BME280;32098;49.448;7.904;2024-03-22T01:19:55;98635.44;;;7.93;77.07
46392;BME280;32098;49.448;7.904;2024-03-22T01:22:30;98700.00;;;8.28;76.77
46392;BME280;32098;49.448;7.904;2024-03-22T01:24:56;98694.00;;;8.40;76.68
46392;BME280;32098;49.448;7.904;2024-03-22T01:27:22;98707.72;;;8.44;76.22
46392;BME280;32098;49.448;7.904;2024-03-22T01:29:48;98699.84;;;8.29;76.58
46392;BME280;32098;49.448;7.904;2024-03-22T01:32:14;98783.59;;;8.87;76.94
46392;BME280;32098;49.448;7.904;2024-03-22T01:34:40;98645.09;;;8.00;76.38
46392;BME280;32098;49.448;7.904;2024-03-22T01:37:06;98770.72;;;8.84;76.72
46392;BME280;32098;49.448;7.904;2024-03-22T01:39:32;98714.16;;;8.35;76.55
46392;BME280;32098;49.448;7.904;2024-03-22T01:41:58;98614.75;;;7.61;76.22
46392;BME280;32098;49.448;7.904;2024-03-22T01:44:28;98776.63;;;8.58;76.87
46392;BME280;32098;49.448;7.904;2024-03-22T01:46:55;98755.38;;;8.37;77.53
46392;BME280;32098;49.448;7.904;2024-03-22T01:49:24;98752.13;;;8.14;78.83
46392;BME280;32098;49.448;7.904;2024-03-22T01:51:51;98773.78;;;8.39;78.66
46392;BME280;32098;49.448;7.904;2024-03-22T01:54:17;98739.72;;;8.00;79.96
46392;BME280;32098;49.448;7.904;2024-03-22T01:56:43;98737.88;;;8.00;80.51
46392;BME280;32098;49.448;7.904;2024-03-22T01:59:09;98756.44;;;8.00;79.82
46392;BME280;32098;49.448;7.904;2024-03-22T02:01:35;98737.22;;;8.13;80.04
46392;BME280;32098;49.448;7.904;2024-03-22T02:04:01;98755.19;;;8.18;79.09
46392;BME280;32098;49.448;7.904;2024-03-22T02:06:27;98744.19;;;7.99;79.16
46392;BME280;32098;49.448;7.904;2024-03-22T02:08:53;98771.41;;;8.08;79.29
46392;BME280;32098;49.448;7.904;2024-03-22T02:11:20;98697.88;;;7.60;79.27
46392;BME280;32098;49.448;7.904;2024-03-22T02:13:45;98710.19;;;7.67;79.29
46392;BME280;32098;49.448;7.904;2024-03-22T02:16:12;98763.84;;;8.05;80.13
46392;BME280;32098;49.448;7.904;2024-03-22T02:18:37;98741.13;;;7.96;78.79
46392;BME280;32098;49.448;7.904;2024-03-22T02:21:04;98622.41;;;7.20;80.13
46392;BME280;32098;49.448;7.904;2024-03-22T02:23:37;98669.28;;;7.55;78.76
46392;BME280;32098;49.448;7.904;2024-03-22T02:26:04;98754.78;;;8.14;78.92
46392;BME280;32098;49.448;7.904;2024-03-22T02:28:31;98746.41;;;8.17;79.03
46392;BME280;32098;49.448;7.904;2024-03-22T02:30:58;98668.34;;;7.63;79.16
46392;BME280;32098;49.448;7.904;2024-03-22T02:37:12;98722.81;;;8.01;79.84
46392;BME280;32098;49.448;7.904;2024-03-22T02:39:38;98698.88;;;7.94;79.25
46392;BME280;32098;49.448;7.904;2024-03-22T02:42:04;98638.78;;;7.59;78.88
46392;BME280;32098;49.448;7.904;2024-03-22T02:44:32;98736.47;;;8.19;78.84
46392;BME280;32098;49.448;7.904;2024-03-22T02:46:58;98562.44;;;7.12;78.86
46392;BME280;32098;49.448;7.904;2024-03-22T02:49:25;98541.00;;;7.07;78.59
46392;BME280;32098;49.448;7.904;2024-03-22T02:51:51;98667.88;;;7.74;78.64
46392;BME280;32098;49.448;7.904;2024-03-22T02:54:17;98676.22;;;7.92;78.41
46392;BME280;32098;49.448;7.904;2024-03-22T02:56:47;98682.16;;;7.94;78.66
46392;BME280;32098;49.448;7.904;2024-03-22T02:59:13;98719.22;;;8.09;79.54
46392;BME280;32098;49.448;7.904;2024-03-22T03:01:41;98718.66;;;8.13;79.13
46392;BME280;32098;49.448;7.904;2024-03-22T03:04:06;98639.09;;;7.71;79.50
46392;BME280;32098;49.448;7.904;2024-03-22T03:06:32;98715.00;;;8.14;78.64
46392;BME280;32098;49.448;7.904;2024-03-22T03:08:58;98702.97;;;7.97;80.36
46392;BME280;32098;49.448;7.904;2024-03-22T03:11:24;98700.03;;;8.07;79.97
46392;BME280;32098;49.448;7.904;2024-03-22T03:13:50;98683.47;;;7.83;79.42
46392;BME280;32098;49.448;7.904;2024-03-22T03:16:16;98690.13;;;7.94;79.42
46392;BME280;32098;49.448;7.904;2024-03-22T03:18:42;98706.91;;;8.01;79.79
46392;BME280;32098;49.448;7.904;2024-03-22T03:21:08;98703.78;;;7.97;80.31
46392;BME280;32098;49.448;7.904;2024-03-22T03:23:34;98676.94;;;7.65;80.56
46392;BME280;32098;49.448;7.904;2024-03-22T03:26:00;98686.66;;;7.58;80.77
46392;BME280;32098;49.448;7.904;2024-03-22T03:28:26;98659.09;;;7.37;81.93
46392;BME280;32098;49.448;7.904;2024-03-22T03:30:53;98719.22;;;7.73;81.91
46392;BME280;32098;49.448;7.904;2024-03-22T03:33:18;98590.13;;;6.95;81.85
46392;BME280;32098;49.448;7.904;2024-03-22T03:35:47;98687.09;;;7.61;82.01
46392;BME280;32098;49.448;7.904;2024-03-22T03:38:13;98633.66;;;7.36;81.77
46392;BME280;32098;49.448;7.904;2024-03-22T03:40:40;98638.47;;;7.18;82.22
46392;BME280;32098;49.448;7.904;2024-03-22T03:43:06;98614.41;;;6.99;81.72
46392;BME280;32098;49.448;7.904;2024-03-22T03:45:31;98647.53;;;7.60;81.72
46392;BME280;32098;49.448;7.904;2024-03-22T03:47:58;98661.59;;;7.60;81.84
46392;BME280;32098;49.448;7.904;2024-03-22T03:50:24;98671.00;;;7.63;81.79
46392;BME280;32098;49.448;7.904;2024-03-22T03:52:50;98701.66;;;7.86;81.28
46392;BME280;32098;49.448;7.904;2024-03-22T03:55:16;98671.28;;;7.68;81.02
46392;BME280;32098;49.448;7.904;2024-03-22T03:57:42;98599.84;;;7.38;80.69
46392;BME280;32098;49.448;7.904;2024-03-22T04:00:08;98695.09;;;8.03;80.75
46392;BME280;32098;49.448;7.904;2024-03-22T04:02:33;98577.47;;;7.41;79.73
46392;BME280;32098;49.448;7.904;2024-03-22T04:05:00;98632.25;;;7.76;79.19
46392;BME280;32098;49.448;7.904;2024-03-22T04:07:26;98598.13;;;7.52;79.46
46392;BME280;32098;49.448;7.904;2024-03-22T04:09:52;98662.09;;;8.06;78.91
46392;BME280;32098;49.448;7.904;2024-03-22T04:12:18;98601.56;;;7.67;78.63
46392;BME280;32098;49.448;7.904;2024-03-22T04:14:44;98624.03;;;7.71;78.88
46392;BME280;32098;49.448;7.904;2024-03-22T04:17:12;98562.06;;;7.30;78.91
46392;BME280;32098;49.448;7.904;2024-03-22T04:19:38;98633.69;;;7.79;78.71
46392;BME280;32098;49.448;7.904;2024-03-22T04:22:04;98678.75;;;8.00;78.46
46392;BME280;32098;49.448;7.904;2024-03-22T04:24:29;98532.69;;;7.10;78.62
46392;BME280;32098;49.448;7.904;2024-03-22T04:26:56;98606.19;;;7.59;78.69
46392;BME280;32098;49.448;7.904;2024-03-22T04:29:21;98598.97;;;7.53;78.59
46392;BME280;32098;49.448;7.904;2024-03-22T04:31:47;98624.81;;;7.72;78.69
46392;BME280;32098;49.448;7.904;2024-03-22T04:34:13;98624.19;;;7.70;78.85
46392;BME280;32098;49.448;7.904;2024-03-22T04:36:38;98597.94;;;7.32;78.87
46392;BME280;32098;49.448;7.904;2024-03-22T04:39:04;98657.41;;;7.66;79.82
46392;BME280;32098;49.448;7.904;2024-03-22T04:41:30;98662.44;;;7.61;80.60
46392;BME280;32098;49.448;7.904;2024-03-22T04:43:56;98642.44;;;7.58;80.30
46392;BME280;32098;49.448;7.904;2024-03-22T04:46:22;98653.91;;;7.65;80.98
46392;BME280;32098;49.448;7.904;2024-03-22T04:48:48;98613.72;;;7.41;80.48
46392;BME280;32098;49.448;7.904;2024-03-22T04:51:18;98610.69;;;7.44;80.57
46392;BME280;32098;49.448;7.904;2024-03-22T04:53:44;98634.03;;;7.55;80.40
46392;BME280;32098;49.448;7.904;2024-03-22T04:56:12;98576.22;;;7.08;81.53
46392;BME280;32098;49.448;7.904;2024-03-22T04:58:37;98629.25;;;7.44;81.38
46392;BME280;32098;49.448;7.904;2024-03-22T05:01:03;98618.84;;;7.27;81.73
46392;BME280;32098;49.448;7.904;2024-03-22T05:03:29;98652.34;;;7.71;80.85
46392;BME280;32098;49.448;7.904;2024-03-22T05:05:56;98500.56;;;6.78;81.00
46392;BME280;32098;49.448;7.904;2024-03-22T05:08:23;98614.16;;;7.44;81.34
46392;BME280;32098;49.448;7.904;2024-03-22T05:10:52;98652.09;;;7.66;82.29
46392;BME280;32098;49.448;7.904;2024-03-22T05:13:18;98437.44;;;6.09;82.22
46392;BME280;32098;49.448;7.904;2024-03-22T05:15:44;98603.53;;;7.08;82.77
46392;BME280;32098;49.448;7.904;2024-03-22T05:18:10;98602.16;;;7.12;82.79
46392;BME280;32098;49.448;7.904;2024-03-22T05:20:36;98674.66;;;7.62;82.96
46392;BME280;32098;49.448;7.904;2024-03-22T05:23:02;98511.78;;;6.65;82.90
46392;BME280;32098;49.448;7.904;2024-03-22T05:25:29;98619.22;;;7.39;83.28
46392;BME280;32098;49.448;7.904;2024-03-22T05:27:55;98532.09;;;6.79;82.92
46392;BME280;32098;49.448;7.904;2024-03-22T05:30:21;98554.25;;;7.43;97.35
46392;BME280;32098;49.448;7.904;2024-03-22T05:32:46;98566.66;;;7.85;100.00
46392;BME280;32098;49.448;7.904;2024-03-22T05:35:12;98395.22;;;7.51;99.87
46392;BME280;32098;49.448;7.904;2024-03-22T05:37:38;98587.03;;;9.02;93.76
46392;BME280;32098;49.448;7.904;2024-03-22T05:40:06;98423.13;;;8.22;89.81
46392;BME280;32098;49.448;7.904;2024-03-22T05:42:32;98519.22;;;9.06;86.89
46392;BME280;32098;49.448;7.904;2024-03-22T05:44:58;98514.41;;;9.29;85.75
46392;BME280;32098;49.448;7.904;2024-03-22T05:47:23;98581.53;;;9.83;84.14
46392;BME280;32098;49.448;7.904;2024-03-22T05:49:50;98619.78;;;9.76;72.14
46392;BME280;32098;49.448;7.904;2024-03-22T05:52:17;98605.13;;;9.26;72.23
46392;BME280;32098;49.448;7.904;2024-03-22T05:54:43;98619.00;;;8.87;73.76
46392;BME280;32098;49.448;7.904;2024-03-22T05:57:09;98497.16;;;8.17;74.59
46392;BME280;32098;49.448;7.904;2024-03-22T05:59:35;98375.75;;;7.16;75.21
46392;BME280;32098;49.448;7.904;2024-03-22T06:02:01;98661.44;;;8.81;75.09
46392;BME280;32098;49.448;7.904;2024-03-22T06:04:27;98557.34;;;8.17;76.15
46392;BME280;32098;49.448;7.904;2024-03-22T06:06:54;98649.72;;;8.68;75.82
46392;BME280;32098;49.448;7.904;2024-03-22T06:09:20;98656.34;;;8.51;77.17
46392;BME280;32098;49.448;7.904;2024-03-22T06:12:05;98548.19;;;7.91;78.36
46392;BME280;32098;49.448;7.904;2024-03-22T06:14:31;98571.63;;;8.22;78.05
46392;BME280;32098;49.448;7.904;2024-03-22T06:16:57;98475.78;;;7.91;77.99
46392;BME280;32098;49.448;7.904;2024-03-22T06:19:24;98634.28;;;9.13;76.90
46392;BME280;32098;49.448;7.904;2024-03-22T06:21:49;98631.16;;;9.50;76.98
46392;BME280;32098;49.448;7.904;2024-03-22T06:24:15;98594.22;;;9.81;76.44
46392;BME280;32098;49.448;7.904;2024-03-22T06:26:41;98594.84;;;10.49;74.00
46392;BME280;32098;49.448;7.904;2024-03-22T06:29:07;98567.75;;;10.65;72.59
46392;BME280;32098;49.448;7.904;2024-03-22T06:31:33;98573.84;;;10.98;69.65
46392;BME280;32098;49.448;7.904;2024-03-22T06:33:59;98570.16;;;10.99;69.28
46392;BME280;32098;49.448;7.904;2024-03-22T06:36:29;98559.56;;;10.86;69.41
46392;BME280;32098;49.448;7.904;2024-03-22T06:38:55;98580.88;;;10.80;68.81
46392;BME280;32098;49.448;7.904;2024-03-22T06:41:22;98621.19;;;10.96;70.59
46392;BME280;32098;49.448;7.904;2024-03-22T06:43:48;98543.44;;;10.48;71.26
46392;BME280;32098;49.448;7.904;2024-03-22T06:46:13;98540.81;;;10.29;71.46
46392;BME280;32098;49.448;7.904;2024-03-22T06:48:42;98605.66;;;10.60;72.59
46392;BME280;32098;49.448;7.904;2024-03-22T06:51:09;98523.25;;;9.82;74.62
46392;BME280;32098;49.448;7.904;2024-03-22T06:53:35;98564.97;;;10.08;76.11
46392;BME280;32098;49.448;7.904;2024-03-22T06:56:01;98586.28;;;10.14;76.34
46392;BME280;32098;49.448;7.904;2024-03-22T06:58:27;98471.50;;;9.32;75.84
46392;BME280;32098;49.448;7.904;2024-03-22T07:00:54;98564.19;;;10.07;74.63
46392;BME280;32098;49.448;7.904;2024-03-22T07:03:20;98542.25;;;9.85;74.51
46392;BME280;32098;49.448;7.904;2024-03-22T07:05:47;98597.50;;;10.23;73.92
46392;BME280;32098;49.448;7.904;2024-03-22T07:08:13;98542.25;;;9.85;74.54
46392;BME280;32098;49.448;7.904;2024-03-22T07:10:39;98560.47;;;9.88;75.52
46392;BME280;32098;49.448;7.904;2024-03-22T07:13:05;98560.28;;;9.83;76.56
46392;BME280;32098;49.448;7.904;2024-03-22T07:15:31;98542.06;;;9.74;76.95
46392;BME280;32098;49.448;7.904;2024-03-22T07:17:58;98577.44;;;9.87;76.91
46392;BME280;32098;49.448;7.904;2024-03-22T07:20:25;98586.28;;;9.94;77.46
46392;BME280;32098;49.448;7.904;2024-03-22T07:22:51;98522.22;;;9.57;78.55
46392;BME280;32098;49.448;7.904;2024-03-22T07:25:17;98588.31;;;9.79;79.84
46392;BME280;32098;49.448;7.904;2024-03-22T07:27:43;98471.81;;;8.96;81.13
46392;BME280;32098;49.448;7.904;2024-03-22T07:30:17;98548.16;;;9.55;80.86
46392;BME280;32098;49.448;7.904;2024-03-22T07:32:43;98568.00;;;9.65;80.71
46392;BME280;32098;49.448;7.904;2024-03-22T07:35:11;98535.50;;;9.63;78.74
46392;BME280;32098;49.448;7.904;2024-03-22T07:37:37;98456.78;;;9.36;78.34
46392;BME280;32098;49.448;7.904;2024-03-22T07:40:05;98399.72;;;9.06;79.21
46392;BME280;32098;49.448;7.904;2024-03-22T07:42:31;98539.81;;;10.10;80.21
46392;BME280;32098;49.448;7.904;2024-03-22T07:44:57;98540.44;;;10.19;80.94
46392;BME280;32098;49.448;7.904;2024-03-22T07:47:23;98574.78;;;10.46;81.05
46392;BME280;32098;49.448;7.904;2024-03-22T07:49:51;98537.13;;;10.36;80.90
46392;BME280;32098;49.448;7.904;2024-03-22T07:52:17;98512.38;;;10.29;80.24
46392;BME280;32098;49.448;7.904;2024-03-22T07:54:43;98456.97;;;9.93;80.05
46392;BME280;32098;49.448;7.904;2024-03-22T07:57:08;98484.56;;;10.19;79.42
46392;BME280;32098;49.448;7.904;2024-03-22T07:59:37;98534.56;;;10.68;79.79
46392;BME280;32098;49.448;7.904;2024-03-22T08:02:03;98571.00;;;10.93;79.18
46392;BME280;32098;49.448;7.904;2024-03-22T08:04:29;98435.03;;;10.18;79.08
46392;BME280;32098;49.448;7.904;2024-03-22T08:06:55;98440.91;;;10.33;78.32
46392;BME280;32098;49.448;7.904;2024-03-22T08:09:23;98467.88;;;10.56;78.47
46392;BME280;32098;49.448;7.904;2024-03-22T08:11:48;98563.50;;;11.15;77.99
46392;BME280;32098;49.448;7.904;2024-03-22T08:14:14;98539.63;;;10.95;76.66
46392;BME280;32098;49.448;7.904;2024-03-22T08:16:42;98530.19;;;10.99;76.65
46392;BME280;32098;49.448;7.904;2024-03-22T08:19:08;98524.28;;;10.97;77.05
46392;BME280;32098;49.448;7.904;2024-03-22T08:21:36;98465.38;;;10.61;77.13
46392;BME280;32098;49.448;7.904;2024-03-22T08:24:02;98559.59;;;11.17;77.73
46392;BME280;32098;49.448;7.904;2024-03-22T08:26:28;98326.91;;;9.92;77.08
46392;BME280;32098;49.448;7.904;2024-03-22T08:28:54;98373.78;;;10.31;77.61
46392;BME280;32098;49.448;7.904;2024-03-22T08:31:20;98502.03;;;11.16;77.25
46392;BME280;32098;49.448;7.904;2024-03-22T08:33:51;98549.06;;;11.42;78.15
46392;BME280;32098;49.448;7.904;2024-03-22T08:36:17;98472.19;;;11.01;78.01
46392;BME280;32098;49.448;7.904;2024-03-22T08:38:43;98410.88;;;10.70;78.22
46392;BME280;32098;49.448;7.904;2024-03-22T08:41:13;98503.94;;;11.41;78.03
46392;BME280;32098;49.448;7.904;2024-03-22T08:43:39;98480.19;;;11.33;77.40
46392;BME280;32098;49.448;7.904;2024-03-22T08:46:06;98531.78;;;11.76;76.83
46392;BME280;32098;49.448;7.904;2024-03-22T08:48:32;98524.38;;;11.78;75.76
46392;BME280;32098;49.448;7.904;2024-03-22T08:50:57;98542.19;;;11.84;75.33
46392;BME280;32098;49.448;7.904;2024-03-22T08:53:23;98526.13;;;11.91;74.67
46392;BME280;32098;49.448;7.904;2024-03-22T08:55:50;98291.00;;;10.45;74.33
46392;BME280;32098;49.448;7.904;2024-03-22T08:58:17;98534.84;;;12.04;74.06
46392;BME280;32098;49.448;7.904;2024-03-22T09:00:44;98294.09;;;10.80;73.56
46392;BME280;32098;49.448;7.904;2024-03-22T09:03:10;98443.34;;;11.79;73.29
46392;BME280;32098;49.448;7.904;2024-03-22T09:05:36;98453.59;;;12.00;73.24
46392;BME280;32098;49.448;7.904;2024-03-22T09:08:03;98462.81;;;12.04;72.37
46392;BME280;32098;49.448;7.904;2024-03-22T09:10:29;98370.03;;;11.63;72.32
46392;BME280;32098;49.448;7.904;2024-03-22T09:12:55;98341.88;;;11.49;72.74
46392;BME280;32098;49.448;7.904;2024-03-22T09:15:21;98377.53;;;11.73;72.74
46392;BME280;32098;49.448;7.904;2024-03-22T09:17:47;98457.38;;;12.35;72.30
46392;BME280;32098;49.448;7.904;2024-03-22T09:20:13;98382.16;;;11.84;71.39
46392;BME280;32098;49.448;7.904;2024-03-22T09:22:39;98520.88;;;12.70;71.72
46392;BME280;32098;49.448;7.904;2024-03-22T09:25:06;98374.75;;;12.04;70.62
46392;BME280;32098;49.448;7.904;2024-03-22T09:27:32;98533.31;;;12.94;70.14
46392;BME280;32098;49.448;7.904;2024-03-22T09:29:58;98352.97;;;12.25;69.39
46392;BME280;32098;49.448;7.904;2024-03-22T09:32:24;98369.41;;;12.40;67.96
46392;BME280;32098;49.448;7.904;2024-03-22T09:34:52;98084.41;;;10.76;66.05
46392;BME280;32098;49.448;7.904;2024-03-22T09:37:18;98405.97;;;12.88;65.33
46392;BME280;32098;49.448;7.904;2024-03-22T09:39:44;98409.50;;;13.00;64.52
46392;BME280;32098;49.448;7.904;2024-03-22T09:42:15;98335.91;;;12.74;63.96
46392;BME280;32098;49.448;7.904;2024-03-22T09:44:49;98395.16;;;13.24;63.66
46392;BME280;32098;49.448;7.904;2024-03-22T09:47:17;98312.09;;;12.73;63.40
46392;BME280;32098;49.448;7.904;2024-03-22T09:49:44;98233.22;;;12.29;62.62
46392;BME280;32098;49.448;7.904;2024-03-22T09:52:13;98330.03;;;13.07;62.66
46392;BME280;32098;49.448;7.904;2024-03-22T09:54:46;98445.88;;;13.95;62.19
46392;BME280;32098;49.448;7.904;2024-03-22T09:57:15;98378.50;;;13.63;62.10
46392;BME280;32098;49.448;7.904;2024-03-22T09:59:42;98435.25;;;14.12;61.79
46392;BME280;32098;49.448;7.904;2024-03-22T10:02:10;98258.22;;;12.99;61.01
46392;BME280;32098;49.448;7.904;2024-03-22T10:04:41;98439.19;;;14.21;59.66
46392;BME280;32098;49.448;7.904;2024-03-22T10:07:07;98084.38;;;12.01;59.98
46392;BME280;32098;49.448;7.904;2024-03-22T10:09:37;98441.53;;;14.29;59.34
46392;BME280;32098;49.448;7.904;2024-03-22T10:12:03;98314.53;;;13.62;59.36
46392;BME280;32098;49.448;7.904;2024-03-22T10:14:30;98453.16;;;14.46;58.93
46392;BME280;32098;49.448;7.904;2024-03-22T10:16:57;98060.53;;;12.18;58.62
46392;BME280;32098;49.448;7.904;2024-03-22T10:19:23;98349.44;;;14.18;58.22
46392;BME280;32098;49.448;7.904;2024-03-22T10:22:03;98414.47;;;14.65;57.96
46392;BME280;32098;49.448;7.904;2024-03-22T10:24:29;98355.84;;;14.29;57.24
46392;BME280;32098;49.448;7.904;2024-03-22T10:26:56;98279.94;;;13.84;57.23
46392;BME280;32098;49.448;7.904;2024-03-22T10:29:22;98334.78;;;14.21;56.74
46392;BME280;32098;49.448;7.904;2024-03-22T10:31:50;98409.78;;;14.72;56.64
46392;BME280;32098;49.448;7.904;2024-03-22T10:34:17;98367.09;;;14.54;56.72
46392;BME280;32098;49.448;7.904;2024-03-22T10:36:46;98334.63;;;14.39;56.31
46392;BME280;32098;49.448;7.904;2024-03-22T10:39:15;98359.72;;;14.61;56.64
46392;BME280;32098;49.448;7.904;2024-03-22T10:41:43;98361.34;;;14.62;55.84
46392;BME280;32098;49.448;7.904;2024-03-22T10:44:09;98363.13;;;14.85;56.08
46392;BME280;32098;49.448;7.904;2024-03-22T10:46:35;98285.81;;;14.49;56.21
46392;BME280;32098;49.448;7.904;2024-03-22T10:49:02;98342.25;;;15.03;56.20
46392;BME280;32098;49.448;7.904;2024-03-22T10:51:34;98361.97;;;15.42;55.97
46392;BME280;32098;49.448;7.904;2024-03-22T10:54:02;98358.16;;;15.55;55.76
46392;BME280;32098;49.448;7.904;2024-03-22T10:56:30;98292.72;;;15.23;55.16
46392;BME280;32098;49.448;7.904;2024-03-22T10:58:56;98292.31;;;15.31;55.32
46392;BME280;32098;49.448;7.904;2024-03-22T11:01:23;98350.41;;;15.75;55.46
46392;BME280;32098;49.448;7.904;2024-03-22T11:03:49;98256.69;;;15.19;55.77
46392;BME280;32098;49.448;7.904;2024-03-22T11:06:19;98340.13;;;15.89;56.14
46392;BME280;32098;49.448;7.904;2024-03-22T11:08:51;98335.69;;;15.99;55.74
46392;BME280;32098;49.448;7.904;2024-03-22T11:11:19;98352.50;;;16.11;55.63
46392;BME280;32098;49.448;7.904;2024-03-22T11:13:47;98324.09;;;16.15;55.75
46392;BME280;32098;49.448;7.904;2024-03-22T11:16:16;98323.16;;;16.26;55.28
46392;BME280;32098;49.448;7.904;2024-03-22T11:18:42;98215.00;;;15.66;55.11
46392;BME280;32098;49.448;7.904;2024-03-22T11:21:08;98232.38;;;15.80;54.91
46392;BME280;32098;49.448;7.904;2024-03-22T11:23:37;98031.13;;;14.50;54.96
46392;BME280;32098;49.448;7.904;2024-03-22T11:26:03;98314.81;;;16.50;54.82
46392;BME280;32098;49.448;7.904;2024-03-22T11:28:30;98240.91;;;16.20;55.12
46392;BME280;32098;49.448;7.904;2024-03-22T11:30:56;98243.31;;;16.22;54.87
46392;BME280;32098;49.448;7.904;2024-03-22T11:33:22;98192.03;;;15.97;54.54
46392;BME280;32098;49.448;7.904;2024-03-22T11:35:49;98291.38;;;16.67;54.82
46392;BME280;32098;49.448;7.904;2024-03-22T11:38:16;98203.25;;;16.15;54.72
46392;BME280;32098;49.448;7.904;2024-03-22T11:40:43;98293.56;;;16.70;54.34
46392;BME280;32098;49.448;7.904;2024-03-22T11:43:10;98060.56;;;15.32;54.21
46392;BME280;32098;49.448;7.904;2024-03-22T11:45:40;98225.09;;;16.51;54.47
46392;BME280;32098;49.448;7.904;2024-03-22T11:48:07;98246.50;;;16.67;54.12
46392;BME280;32098;49.448;7.904;2024-03-22T11:50:33;98270.19;;;17.02;54.52
46392;BME280;32098;49.448;7.904;2024-03-22T11:52:59;98267.63;;;17.17;54.44
46392;BME280;32098;49.448;7.904;2024-03-22T11:55:26;98171.19;;;16.62;53.80
46392;BME280;32098;49.448;7.904;2024-03-22T11:57:53;98279.09;;;17.44;54.15
46392;BME280;32098;49.448;7.904;2024-03-22T12:00:19;98149.06;;;16.87;53.70
46392;BME280;32098;49.448;7.904;2024-03-22T12:02:46;98203.56;;;17.51;53.59
46392;BME280;32098;49.448;7.904;2024-03-22T12:05:11;98252.22;;;17.91;53.47
46392;BME280;32098;49.448;7.904;2024-03-22T12:07:39;98182.88;;;17.62;52.31
46392;BME280;32098;49.448;7.904;2024-03-22T12:10:06;98107.34;;;17.31;51.73
46392;BME280;32098;49.448;7.904;2024-03-22T12:12:32;97842.59;;;15.73;51.26
46392;BME280;32098;49.448;7.904;2024-03-22T12:14:59;97913.41;;;16.09;50.45
46392;BME280;32098;49.448;7.904;2024-03-22T12:17:25;98128.38;;;17.44;50.36
46392;BME280;32098;49.448;7.904;2024-03-22T12:19:51;98020.72;;;16.67;49.96
46392;BME280;32098;49.448;7.904;2024-03-22T12:22:18;98128.88;;;17.31;50.84
46392;BME280;32098;49.448;7.904;2024-03-22T12:24:44;98100.34;;;17.30;50.90
46392;BME280;32098;49.448;7.904;2024-03-22T12:27:11;98031.53;;;16.82;50.29
46392;BME280;32098;49.448;7.904;2024-03-22T12:29:44;98221.22;;;17.94;50.99
46392;BME280;32098;49.448;7.904;2024-03-22T12:32:10;98046.28;;;16.75;51.25
46392;BME280;32098;49.448;7.904;2024-03-22T12:34:36;98032.25;;;16.63;51.72
46392;BME280;32098;49.448;7.904;2024-03-22T12:37:03;97825.72;;;15.46;51.83
46392;BME280;32098;49.448;7.904;2024-03-22T12:39:29;98006.72;;;16.65;51.95
46392;BME280;32098;49.448;7.904;2024-03-22T12:41:54;98159.69;;;17.50;51.07
46392;BME280;32098;49.448;7.904;2024-03-22T12:44:20;98089.00;;;17.13;51.71
46392;BME280;32098;49.448;7.904;2024-03-22T12:46:47;98200.47;;;17.89;51.58
46392;BME280;32098;49.448;7.904;2024-03-22T12:49:13;98202.88;;;17.76;51.62
46392;BME280;32098;49.448;7.904;2024-03-22T12:51:41;98148.63;;;17.52;51.27
46392;BME280;32098;49.448;7.904;2024-03-22T12:54:08;98207.19;;;17.87;51.48
46392;BME280;32098;49.448;7.904;2024-03-22T12:56:34;97986.56;;;16.63;50.89
46392;BME280;32098;49.448;7.904;2024-03-22T12:59:02;98158.44;;;17.73;51.26
46392;BME280;32098;49.448;7.904;2024-03-22T13:01:28;98181.94;;;17.98;51.04
46392;BME280;32098;49.448;7.904;2024-03-22T13:03:54;98124.22;;;17.69;50.76
46392;BME280;32098;49.448;7.904;2024-03-22T13:06:21;98181.44;;;18.11;51.17